sensor_id;sensor_type;location;lat;lon;timestamp;P1;durP1;ratioP1;P2;durP2;ratioP2
75526;SDS011;64107;49.248;7.006;2023-08-07T00:00:49;1.55;;;1.00;;
75526;SDS011;64107;49.248;7.006;2023-08-07T00:03:15;3.22;;;1.85;;
75526;SDS011;64107;49.248;7.006;2023-08-07T00:05:47;3.35;;;1.80;;
75526;SDS011;64107;49.248;7.006;2023-08-07T00:08:13;4.07;;;2.05;;
75526;SDS011;64107;49.248;7.006;2023-08-07T00:10:39;3.65;;;1.58;;
75526;SDS011;64107;49.248;7.006;2023-08-07T00:13:05;2.72;;;1.35;;
75526;SDS011;64107;49.248;7.006;2023-08-07T00:15:31;2.10;;;1.17;;
75526;SDS011;64107;49.248;7.006;2023-08-07T00:18:00;2.85;;;1.05;;
75526;SDS011;64107;49.248;7.006;2023-08-07T00:20:26;3.50;;;1.58;;
75526;SDS011;64107;49.248;7.006;2023-08-07T00:22:52;1.92;;;1.50;;
75526;SDS011;64107;49.248;7.006;2023-08-07T00:25:18;2.67;;;1.25;;
75526;SDS011;64107;49.248;7.006;2023-08-07T00:27:44;3.45;;;1.30;;
75526;SDS011;64107;49.248;7.006;2023-08-07T00:30:11;2.63;;;1.30;;
75526;SDS011;64107;49.248;7.006;2023-08-07T00:32:37;2.70;;;1.30;;
75526;SDS011;64107;49.248;7.006;2023-08-07T00:35:03;2.88;;;1.30;;
75526;SDS011;64107;49.248;7.006;2023-08-07T00:37:30;2.17;;;1.40;;
75526;SDS011;64107;49.248;7.006;2023-08-07T00:39:56;3.17;;;1.52;;
75526;SDS011;64107;49.248;7.006;2023-08-07T00:42:22;1.30;;;1.10;;
75526;SDS011;64107;49.248;7.006;2023-08-07T00:44:48;3.75;;;1.38;;
75526;SDS011;64107;49.248;7.006;2023-08-07T00:47:15;2.90;;;1.55;;
75526;SDS011;64107;49.248;7.006;2023-08-07T00:49:41;6.80;;;1.60;;
75526;SDS011;64107;49.248;7.006;2023-08-07T00:52:07;1.98;;;1.20;;
75526;SDS011;64107;49.248;7.006;2023-08-07T00:54:33;4.05;;;2.22;;
75526;SDS011;64107;49.248;7.006;2023-08-07T00:57:10;2.70;;;1.27;;
75526;SDS011;64107;49.248;7.006;2023-08-07T00:59:39;3.15;;;1.45;;
75526;SDS011;64107;49.248;7.006;2023-08-07T01:02:06;2.97;;;1.15;;
75526;SDS011;64107;49.248;7.006;2023-08-07T01:04:32;1.35;;;1.00;;
75526;SDS011;64107;49.248;7.006;2023-08-07T01:06:58;2.53;;;1.75;;
75526;SDS011;64107;49.248;7.006;2023-08-07T01:09:24;2.58;;;1.40;;
75526;SDS011;64107;49.248;7.006;2023-08-07T01:14:51;3.13;;;1.60;;
75526;SDS011;64107;49.248;7.006;2023-08-07T01:17:27;4.38;;;1.35;;
75526;SDS011;64107;49.248;7.006;2023-08-07T01:19:54;3.60;;;1.67;;
75526;SDS011;64107;49.248;7.006;2023-08-07T01:22:21;3.25;;;1.80;;
75526;SDS011;64107;49.248;7.006;2023-08-07T01:24:48;1.55;;;1.40;;
75526;SDS011;64107;49.248;7.006;2023-08-07T01:27:19;3.40;;;1.95;;
75526;SDS011;64107;49.248;7.006;2023-08-07T01:33:04;2.67;;;1.45;;
75526;SDS011;64107;49.248;7.006;2023-08-07T01:35:36;3.90;;;2.25;;
75526;SDS011;64107;49.248;7.006;2023-08-07T01:38:16;2.45;;;1.20;;
75526;SDS011;64107;49.248;7.006;2023-08-07T01:40:43;4.00;;;2.40;;
75526;SDS011;64107;49.248;7.006;2023-08-07T01:43:10;2.28;;;1.40;;
75526;SDS011;64107;49.248;7.006;2023-08-07T01:45:36;3.15;;;1.88;;
75526;SDS011;64107;49.248;7.006;2023-08-07T01:48:02;1.60;;;1.45;;
75526;SDS011;64107;49.248;7.006;2023-08-07T01:50:28;3.85;;;1.67;;
75526;SDS011;64107;49.248;7.006;2023-08-07T01:52:55;1.67;;;1.35;;
75526;SDS011;64107;49.248;7.006;2023-08-07T01:55:22;4.22;;;1.65;;
75526;SDS011;64107;49.248;7.006;2023-08-07T01:57:48;3.65;;;1.77;;
75526;SDS011;64107;49.248;7.006;2023-08-07T02:00:14;3.72;;;1.58;;
75526;SDS011;64107;49.248;7.006;2023-08-07T02:02:40;4.63;;;1.42;;
75526;SDS011;64107;49.248;7.006;2023-08-07T02:05:06;4.50;;;1.67;;
75526;SDS011;64107;49.248;7.006;2023-08-07T02:07:32;1.85;;;1.55;;
75526;SDS011;64107;49.248;7.006;2023-08-07T02:09:58;3.08;;;1.48;;
75526;SDS011;64107;49.248;7.006;2023-08-07T02:12:24;3.25;;;1.60;;
75526;SDS011;64107;49.248;7.006;2023-08-07T02:14:52;5.50;;;1.60;;
75526;SDS011;64107;49.248;7.006;2023-08-07T02:17:20;4.20;;;1.60;;
75526;SDS011;64107;49.248;7.006;2023-08-07T02:19:49;2.75;;;1.50;;
75526;SDS011;64107;49.248;7.006;2023-08-07T02:22:15;2.35;;;1.50;;
75526;SDS011;64107;49.248;7.006;2023-08-07T02:24:41;2.35;;;1.48;;
75526;SDS011;64107;49.248;7.006;2023-08-07T02:27:07;3.55;;;1.75;;
75526;SDS011;64107;49.248;7.006;2023-08-07T02:29:33;5.20;;;1.90;;
75526;SDS011;64107;49.248;7.006;2023-08-07T02:32:02;4.30;;;1.50;;
75526;SDS011;64107;49.248;7.006;2023-08-07T02:34:29;7.47;;;2.92;;
75526;SDS011;64107;49.248;7.006;2023-08-07T02:36:55;3.05;;;1.80;;
75526;SDS011;64107;49.248;7.006;2023-08-07T02:39:22;2.65;;;1.80;;
75526;SDS011;64107;49.248;7.006;2023-08-07T02:41:48;3.03;;;1.50;;
75526;SDS011;64107;49.248;7.006;2023-08-07T02:44:14;2.17;;;1.38;;
75526;SDS011;64107;49.248;7.006;2023-08-07T02:46:42;4.78;;;2.25;;
75526;SDS011;64107;49.248;7.006;2023-08-07T02:49:08;3.28;;;1.58;;
75526;SDS011;64107;49.248;7.006;2023-08-07T02:51:34;3.38;;;1.80;;
75526;SDS011;64107;49.248;7.006;2023-08-07T02:54:00;2.88;;;1.25;;
75526;SDS011;64107;49.248;7.006;2023-08-07T02:56:26;4.97;;;2.17;;
75526;SDS011;64107;49.248;7.006;2023-08-07T02:58:53;4.32;;;2.30;;
75526;SDS011;64107;49.248;7.006;2023-08-07T03:01:19;2.28;;;1.35;;
75526;SDS011;64107;49.248;7.006;2023-08-07T03:03:48;4.18;;;2.00;;
75526;SDS011;64107;49.248;7.006;2023-08-07T03:06:14;5.72;;;2.33;;
75526;SDS011;64107;49.248;7.006;2023-08-07T03:08:40;5.50;;;2.40;;
75526;SDS011;64107;49.248;7.006;2023-08-07T03:11:07;6.97;;;2.55;;
75526;SDS011;64107;49.248;7.006;2023-08-07T03:13:33;4.80;;;2.60;;
75526;SDS011;64107;49.248;7.006;2023-08-07T03:16:00;3.38;;;1.67;;
75526;SDS011;64107;49.248;7.006;2023-08-07T03:18:27;3.30;;;1.55;;
75526;SDS011;64107;49.248;7.006;2023-08-07T03:20:54;4.05;;;1.95;;
75526;SDS011;64107;49.248;7.006;2023-08-07T03:23:21;4.53;;;2.03;;
75526;SDS011;64107;49.248;7.006;2023-08-07T03:25:50;5.97;;;2.35;;
75526;SDS011;64107;49.248;7.006;2023-08-07T03:28:16;3.78;;;1.95;;
75526;SDS011;64107;49.248;7.006;2023-08-07T03:30:43;2.65;;;1.45;;
75526;SDS011;64107;49.248;7.006;2023-08-07T03:33:09;2.00;;;1.80;;
75526;SDS011;64107;49.248;7.006;2023-08-07T03:35:35;4.05;;;2.17;;
75526;SDS011;64107;49.248;7.006;2023-08-07T03:38:02;3.50;;;2.03;;
75526;SDS011;64107;49.248;7.006;2023-08-07T03:40:28;4.85;;;1.92;;
75526;SDS011;64107;49.248;7.006;2023-08-07T03:42:54;5.72;;;2.10;;
75526;SDS011;64107;49.248;7.006;2023-08-07T03:45:20;4.78;;;2.20;;
75526;SDS011;64107;49.248;7.006;2023-08-07T03:47:46;7.30;;;2.40;;
75526;SDS011;64107;49.248;7.006;2023-08-07T03:50:12;3.80;;;1.90;;
75526;SDS011;64107;49.248;7.006;2023-08-07T03:52:38;3.30;;;2.08;;
75526;SDS011;64107;49.248;7.006;2023-08-07T03:55:04;4.18;;;2.00;;
75526;SDS011;64107;49.248;7.006;2023-08-07T03:57:30;3.88;;;2.20;;
75526;SDS011;64107;49.248;7.006;2023-08-07T03:59:56;2.42;;;1.73;;
75526;SDS011;64107;49.248;7.006;2023-08-07T04:02:23;8.13;;;2.17;;
75526;SDS011;64107;49.248;7.006;2023-08-07T04:04:50;5.10;;;2.13;;
75526;SDS011;64107;49.248;7.006;2023-08-07T04:07:16;6.45;;;2.90;;
75526;SDS011;64107;49.248;7.006;2023-08-07T04:09:42;3.15;;;2.28;;
75526;SDS011;64107;49.248;7.006;2023-08-07T04:12:08;6.25;;;2.13;;
75526;SDS011;64107;49.248;7.006;2023-08-07T04:14:34;4.70;;;2.35;;
75526;SDS011;64107;49.248;7.006;2023-08-07T04:17:00;2.83;;;1.75;;
75526;SDS011;64107;49.248;7.006;2023-08-07T04:19:27;4.00;;;2.20;;
75526;SDS011;64107;49.248;7.006;2023-08-07T04:21:53;3.92;;;2.03;;
75526;SDS011;64107;49.248;7.006;2023-08-07T04:24:19;4.38;;;2.25;;
75526;SDS011;64107;49.248;7.006;2023-08-07T04:26:45;12.73;;;3.30;;
75526;SDS011;64107;49.248;7.006;2023-08-07T04:29:11;4.68;;;2.65;;
75526;SDS011;64107;49.248;7.006;2023-08-07T04:31:37;5.18;;;2.53;;
75526;SDS011;64107;49.248;7.006;2023-08-07T04:34:03;4.93;;;2.10;;
75526;SDS011;64107;49.248;7.006;2023-08-07T04:36:29;5.72;;;3.45;;
75526;SDS011;64107;49.248;7.006;2023-08-07T04:38:55;7.57;;;3.35;;
75526;SDS011;64107;49.248;7.006;2023-08-07T04:41:22;7.53;;;3.40;;
75526;SDS011;64107;49.248;7.006;2023-08-07T04:43:48;4.90;;;2.55;;
75526;SDS011;64107;49.248;7.006;2023-08-07T04:46:14;7.15;;;2.97;;
75526;SDS011;64107;49.248;7.006;2023-08-07T04:48:40;2.95;;;2.03;;
75526;SDS011;64107;49.248;7.006;2023-08-07T04:51:06;6.68;;;1.75;;
75526;SDS011;64107;49.248;7.006;2023-08-07T04:53:32;3.00;;;1.50;;
75526;SDS011;64107;49.248;7.006;2023-08-07T04:55:59;3.83;;;2.25;;
75526;SDS011;64107;49.248;7.006;2023-08-07T04:58:25;3.75;;;1.40;;
75526;SDS011;64107;49.248;7.006;2023-08-07T05:00:57;2.28;;;0.77;;
75526;SDS011;64107;49.248;7.006;2023-08-07T05:03:25;3.45;;;2.00;;
75526;SDS011;64107;49.248;7.006;2023-08-07T05:05:59;5.30;;;2.40;;
75526;SDS011;64107;49.248;7.006;2023-08-07T05:08:25;3.33;;;1.45;;
75526;SDS011;64107;49.248;7.006;2023-08-07T05:10:52;5.00;;;3.05;;
75526;SDS011;64107;49.248;7.006;2023-08-07T05:13:18;7.93;;;2.67;;
75526;SDS011;64107;49.248;7.006;2023-08-07T05:15:46;5.25;;;2.95;;
75526;SDS011;64107;49.248;7.006;2023-08-07T05:18:12;6.35;;;2.45;;
75526;SDS011;64107;49.248;7.006;2023-08-07T05:20:38;8.48;;;3.15;;
75526;SDS011;64107;49.248;7.006;2023-08-07T05:23:04;4.82;;;2.20;;
75526;SDS011;64107;49.248;7.006;2023-08-07T05:25:31;5.43;;;2.47;;
75526;SDS011;64107;49.248;7.006;2023-08-07T05:27:57;2.33;;;1.92;;
75526;SDS011;64107;49.248;7.006;2023-08-07T05:30:23;5.10;;;2.20;;
75526;SDS011;64107;49.248;7.006;2023-08-07T05:32:49;6.75;;;2.20;;
75526;SDS011;64107;49.248;7.006;2023-08-07T05:35:15;8.93;;;2.20;;
75526;SDS011;64107;49.248;7.006;2023-08-07T05:37:41;3.97;;;2.00;;
75526;SDS011;64107;49.248;7.006;2023-08-07T05:40:07;4.80;;;1.95;;
75526;SDS011;64107;49.248;7.006;2023-08-07T05:42:36;7.00;;;1.83;;
75526;SDS011;64107;49.248;7.006;2023-08-07T05:45:03;1.48;;;1.33;;
75526;SDS011;64107;49.248;7.006;2023-08-07T05:47:29;4.95;;;1.70;;
75526;SDS011;64107;49.248;7.006;2023-08-07T05:49:57;4.88;;;1.90;;
75526;SDS011;64107;49.248;7.006;2023-08-07T05:52:23;4.28;;;1.67;;
75526;SDS011;64107;49.248;7.006;2023-08-07T05:54:49;4.88;;;2.03;;
75526;SDS011;64107;49.248;7.006;2023-08-07T05:57:15;1.95;;;1.38;;
75526;SDS011;64107;49.248;7.006;2023-08-07T05:59:42;4.20;;;1.50;;
75526;SDS011;64107;49.248;7.006;2023-08-07T06:02:08;8.70;;;2.05;;
75526;SDS011;64107;49.248;7.006;2023-08-07T06:04:36;3.58;;;1.77;;
75526;SDS011;64107;49.248;7.006;2023-08-07T06:07:03;4.60;;;1.38;;
75526;SDS011;64107;49.248;7.006;2023-08-07T06:09:30;1.80;;;1.67;;
75526;SDS011;64107;49.248;7.006;2023-08-07T06:11:56;2.38;;;1.95;;
75526;SDS011;64107;49.248;7.006;2023-08-07T06:14:22;2.03;;;1.50;;
75526;SDS011;64107;49.248;7.006;2023-08-07T06:16:50;4.70;;;2.10;;
75526;SDS011;64107;49.248;7.006;2023-08-07T06:19:16;5.25;;;1.42;;
75526;SDS011;64107;49.248;7.006;2023-08-07T06:21:42;3.70;;;2.42;;
75526;SDS011;64107;49.248;7.006;2023-08-07T06:24:08;3.67;;;1.52;;
75526;SDS011;64107;49.248;7.006;2023-08-07T06:26:34;2.42;;;1.45;;
75526;SDS011;64107;49.248;7.006;2023-08-07T06:29:01;3.30;;;1.92;;
75526;SDS011;64107;49.248;7.006;2023-08-07T06:31:27;1.63;;;1.23;;
75526;SDS011;64107;49.248;7.006;2023-08-07T06:33:53;6.47;;;2.05;;
75526;SDS011;64107;49.248;7.006;2023-08-07T06:36:19;2.63;;;1.40;;
75526;SDS011;64107;49.248;7.006;2023-08-07T06:38:45;3.25;;;1.35;;
75526;SDS011;64107;49.248;7.006;2023-08-07T06:41:11;1.27;;;1.00;;
75526;SDS011;64107;49.248;7.006;2023-08-07T06:43:38;2.42;;;1.35;;
75526;SDS011;64107;49.248;7.006;2023-08-07T06:46:04;5.13;;;1.20;;
75526;SDS011;64107;49.248;7.006;2023-08-07T06:48:30;0.65;;;0.65;;
75526;SDS011;64107;49.248;7.006;2023-08-07T06:50:56;1.25;;;1.00;;
75526;SDS011;64107;49.248;7.006;2023-08-07T06:53:22;3.15;;;1.10;;
75526;SDS011;64107;49.248;7.006;2023-08-07T06:55:48;1.02;;;0.93;;
75526;SDS011;64107;49.248;7.006;2023-08-07T06:58:15;3.90;;;1.38;;
75526;SDS011;64107;49.248;7.006;2023-08-07T07:00:41;2.05;;;1.60;;
75526;SDS011;64107;49.248;7.006;2023-08-07T07:03:07;1.50;;;1.02;;
75526;SDS011;64107;49.248;7.006;2023-08-07T07:05:34;2.35;;;1.15;;
75526;SDS011;64107;49.248;7.006;2023-08-07T07:08:01;2.33;;;1.20;;
75526;SDS011;64107;49.248;7.006;2023-08-07T07:10:27;2.42;;;0.98;;
75526;SDS011;64107;49.248;7.006;2023-08-07T07:12:53;2.95;;;0.73;;
75526;SDS011;64107;49.248;7.006;2023-08-07T07:15:20;2.05;;;1.10;;
75526;SDS011;64107;49.248;7.006;2023-08-07T07:17:46;2.78;;;1.08;;
75526;SDS011;64107;49.248;7.006;2023-08-07T07:20:12;1.45;;;0.95;;
75526;SDS011;64107;49.248;7.006;2023-08-07T07:22:38;2.03;;;1.40;;
75526;SDS011;64107;49.248;7.006;2023-08-07T07:25:05;1.50;;;1.08;;
75526;SDS011;64107;49.248;7.006;2023-08-07T07:27:31;2.00;;;1.42;;
75526;SDS011;64107;49.248;7.006;2023-08-07T07:29:57;1.98;;;1.30;;
75526;SDS011;64107;49.248;7.006;2023-08-07T07:32:23;6.43;;;3.03;;
75526;SDS011;64107;49.248;7.006;2023-08-07T07:34:51;1.27;;;0.88;;
75526;SDS011;64107;49.248;7.006;2023-08-07T07:37:17;2.65;;;0.90;;
75526;SDS011;64107;49.248;7.006;2023-08-07T07:39:43;4.07;;;1.38;;
75526;SDS011;64107;49.248;7.006;2023-08-07T07:42:09;2.33;;;0.77;;
75526;SDS011;64107;49.248;7.006;2023-08-07T07:44:35;2.72;;;1.33;;
75526;SDS011;64107;49.248;7.006;2023-08-07T07:47:01;3.40;;;1.30;;
75526;SDS011;64107;49.248;7.006;2023-08-07T07:49:27;1.67;;;1.58;;
75526;SDS011;64107;49.248;7.006;2023-08-07T07:51:53;2.15;;;1.65;;
75526;SDS011;64107;49.248;7.006;2023-08-07T07:54:19;2.35;;;1.48;;
75526;SDS011;64107;49.248;7.006;2023-08-07T07:56:46;3.08;;;1.58;;
75526;SDS011;64107;49.248;7.006;2023-08-07T07:59:12;1.30;;;1.10;;
75526;SDS011;64107;49.248;7.006;2023-08-07T08:01:38;2.63;;;0.82;;
75526;SDS011;64107;49.248;7.006;2023-08-07T08:04:04;2.55;;;1.10;;
75526;SDS011;64107;49.248;7.006;2023-08-07T08:06:31;3.65;;;1.02;;
75526;SDS011;64107;49.248;7.006;2023-08-07T08:08:58;1.25;;;0.98;;
75526;SDS011;64107;49.248;7.006;2023-08-07T08:11:24;1.88;;;0.80;;
75526;SDS011;64107;49.248;7.006;2023-08-07T08:13:50;2.28;;;0.68;;
75526;SDS011;64107;49.248;7.006;2023-08-07T08:16:16;3.08;;;1.73;;
75526;SDS011;64107;49.248;7.006;2023-08-07T08:18:42;0.93;;;0.70;;
75526;SDS011;64107;49.248;7.006;2023-08-07T08:21:08;3.08;;;1.92;;
75526;SDS011;64107;49.248;7.006;2023-08-07T08:23:34;1.55;;;1.20;;
75526;SDS011;64107;49.248;7.006;2023-08-07T08:26:01;2.08;;;1.15;;
75526;SDS011;64107;49.248;7.006;2023-08-07T08:28:27;2.08;;;1.08;;
75526;SDS011;64107;49.248;7.006;2023-08-07T08:30:53;1.27;;;0.90;;
75526;SDS011;64107;49.248;7.006;2023-08-07T08:33:19;2.25;;;1.02;;
75526;SDS011;64107;49.248;7.006;2023-08-07T08:35:45;3.97;;;1.35;;
75526;SDS011;64107;49.248;7.006;2023-08-07T08:38:11;4.25;;;1.73;;
75526;SDS011;64107;49.248;7.006;2023-08-07T08:40:37;2.65;;;1.55;;
75526;SDS011;64107;49.248;7.006;2023-08-07T08:43:05;1.67;;;1.00;;
75526;SDS011;64107;49.248;7.006;2023-08-07T08:45:31;1.35;;;0.88;;
75526;SDS011;64107;49.248;7.006;2023-08-07T08:48:00;1.65;;;1.23;;
75526;SDS011;64107;49.248;7.006;2023-08-07T08:50:27;2.50;;;1.23;;
75526;SDS011;64107;49.248;7.006;2023-08-07T08:52:54;2.60;;;1.40;;
75526;SDS011;64107;49.248;7.006;2023-08-07T08:55:21;1.90;;;1.02;;
75526;SDS011;64107;49.248;7.006;2023-08-07T08:57:48;1.13;;;0.80;;
75526;SDS011;64107;49.248;7.006;2023-08-07T09:00:18;1.88;;;0.95;;
75526;SDS011;64107;49.248;7.006;2023-08-07T09:02:48;2.60;;;1.08;;
75526;SDS011;64107;49.248;7.006;2023-08-07T09:05:15;2.22;;;1.00;;
75526;SDS011;64107;49.248;7.006;2023-08-07T09:07:43;4.07;;;1.20;;
75526;SDS011;64107;49.248;7.006;2023-08-07T09:10:11;2.55;;;1.20;;
75526;SDS011;64107;49.248;7.006;2023-08-07T09:12:42;1.38;;;0.95;;
75526;SDS011;64107;49.248;7.006;2023-08-07T09:15:15;2.53;;;1.75;;
75526;SDS011;64107;49.248;7.006;2023-08-07T09:17:41;2.38;;;1.08;;
75526;SDS011;64107;49.248;7.006;2023-08-07T09:20:08;5.57;;;1.60;;
75526;SDS011;64107;49.248;7.006;2023-08-07T09:22:37;1.58;;;1.10;;
75526;SDS011;64107;49.248;7.006;2023-08-07T09:25:04;2.55;;;1.17;;
75526;SDS011;64107;49.248;7.006;2023-08-07T09:27:31;5.22;;;1.75;;
75526;SDS011;64107;49.248;7.006;2023-08-07T09:29:58;2.38;;;1.20;;
75526;SDS011;64107;49.248;7.006;2023-08-07T09:32:24;2.40;;;1.20;;
75526;SDS011;64107;49.248;7.006;2023-08-07T09:34:50;1.58;;;1.20;;
75526;SDS011;64107;49.248;7.006;2023-08-07T09:37:17;1.35;;;1.10;;
75526;SDS011;64107;49.248;7.006;2023-08-07T09:39:43;1.42;;;0.80;;
75526;SDS011;64107;49.248;7.006;2023-08-07T09:42:12;3.53;;;1.75;;
75526;SDS011;64107;49.248;7.006;2023-08-07T09:44:40;1.80;;;0.95;;
75526;SDS011;64107;49.248;7.006;2023-08-07T09:47:16;3.40;;;1.38;;
75526;SDS011;64107;49.248;7.006;2023-08-07T09:49:43;2.65;;;0.93;;
75526;SDS011;64107;49.248;7.006;2023-08-07T09:52:10;0.85;;;0.75;;
75526;SDS011;64107;49.248;7.006;2023-08-07T09:54:43;1.80;;;1.00;;
75526;SDS011;64107;49.248;7.006;2023-08-07T09:57:09;2.92;;;1.52;;
75526;SDS011;64107;49.248;7.006;2023-08-07T09:59:35;1.70;;;1.20;;
75526;SDS011;64107;49.248;7.006;2023-08-07T10:02:02;1.67;;;1.52;;
75526;SDS011;64107;49.248;7.006;2023-08-07T10:04:29;1.38;;;1.17;;
75526;SDS011;64107;49.248;7.006;2023-08-07T10:06:56;3.50;;;1.27;;
75526;SDS011;64107;49.248;7.006;2023-08-07T10:09:22;1.45;;;1.02;;
75526;SDS011;64107;49.248;7.006;2023-08-07T10:11:49;1.00;;;0.90;;
75526;SDS011;64107;49.248;7.006;2023-08-07T10:14:15;1.52;;;1.10;;
75526;SDS011;64107;49.248;7.006;2023-08-07T10:16:41;2.47;;;1.60;;
75526;SDS011;64107;49.248;7.006;2023-08-07T10:19:08;1.88;;;1.50;;
75526;SDS011;64107;49.248;7.006;2023-08-07T10:21:38;3.35;;;1.52;;
75526;SDS011;64107;49.248;7.006;2023-08-07T10:24:07;2.97;;;1.10;;
75526;SDS011;64107;49.248;7.006;2023-08-07T10:26:37;2.13;;;1.52;;
75526;SDS011;64107;49.248;7.006;2023-08-07T10:29:08;1.55;;;1.23;;
75526;SDS011;64107;49.248;7.006;2023-08-07T10:31:35;2.03;;;1.10;;
75526;SDS011;64107;49.248;7.006;2023-08-07T10:34:02;2.47;;;1.00;;
75526;SDS011;64107;49.248;7.006;2023-08-07T10:36:32;1.13;;;1.02;;
75526;SDS011;64107;49.248;7.006;2023-08-07T10:39:08;2.67;;;1.60;;
75526;SDS011;64107;49.248;7.006;2023-08-07T10:41:39;1.10;;;1.00;;
75526;SDS011;64107;49.248;7.006;2023-08-07T10:46:49;1.00;;;0.90;;
75526;SDS011;64107;49.248;7.006;2023-08-07T10:49:37;2.63;;;1.27;;
75526;SDS011;64107;49.248;7.006;2023-08-07T10:52:08;2.47;;;1.23;;
75526;SDS011;64107;49.248;7.006;2023-08-07T10:54:40;1.83;;;1.30;;
75526;SDS011;64107;49.248;7.006;2023-08-07T10:57:10;1.55;;;1.00;;
75526;SDS011;64107;49.248;7.006;2023-08-07T10:59:38;1.65;;;1.25;;
75526;SDS011;64107;49.248;7.006;2023-08-07T11:02:25;1.83;;;1.15;;
75526;SDS011;64107;49.248;7.006;2023-08-07T11:04:53;1.50;;;1.40;;
75526;SDS011;64107;49.248;7.006;2023-08-07T11:07:24;1.55;;;1.45;;
75526;SDS011;64107;49.248;7.006;2023-08-07T11:09:51;4.40;;;1.75;;
75526;SDS011;64107;49.248;7.006;2023-08-07T11:12:18;2.08;;;1.75;;
75526;SDS011;64107;49.248;7.006;2023-08-07T11:14:45;2.50;;;1.92;;
75526;SDS011;64107;49.248;7.006;2023-08-07T11:17:11;1.90;;;1.40;;
75526;SDS011;64107;49.248;7.006;2023-08-07T11:19:38;2.10;;;1.88;;
75526;SDS011;64107;49.248;7.006;2023-08-07T11:22:04;1.50;;;1.40;;
75526;SDS011;64107;49.248;7.006;2023-08-07T11:24:30;2.63;;;1.73;;
75526;SDS011;64107;49.248;7.006;2023-08-07T11:26:56;1.58;;;1.10;;
75526;SDS011;64107;49.248;7.006;2023-08-07T11:29:23;1.40;;;1.30;;
75526;SDS011;64107;49.248;7.006;2023-08-07T11:31:53;2.58;;;1.70;;
75526;SDS011;64107;49.248;7.006;2023-08-07T11:34:19;2.22;;;1.15;;
75526;SDS011;64107;49.248;7.006;2023-08-07T11:36:45;2.05;;;1.23;;
75526;SDS011;64107;49.248;7.006;2023-08-07T11:39:13;3.10;;;1.63;;
75526;SDS011;64107;49.248;7.006;2023-08-07T11:41:39;1.15;;;1.05;;
75526;SDS011;64107;49.248;7.006;2023-08-07T11:44:07;18.65;;;1.65;;
75526;SDS011;64107;49.248;7.006;2023-08-07T11:46:33;1.25;;;1.15;;
75526;SDS011;64107;49.248;7.006;2023-08-07T11:49:00;2.03;;;1.42;;
75526;SDS011;64107;49.248;7.006;2023-08-07T11:51:28;1.80;;;1.00;;
75526;SDS011;64107;49.248;7.006;2023-08-07T11:53:55;3.28;;;1.60;;
75526;SDS011;64107;49.248;7.006;2023-08-07T11:56:23;4.65;;;1.70;;
75526;SDS011;64107;49.248;7.006;2023-08-07T11:58:50;1.73;;;1.35;;
75526;SDS011;64107;49.248;7.006;2023-08-07T12:01:18;2.05;;;1.38;;
75526;SDS011;64107;49.248;7.006;2023-08-07T12:03:55;2.03;;;1.33;;
75526;SDS011;64107;49.248;7.006;2023-08-07T12:06:23;1.05;;;0.80;;
75526;SDS011;64107;49.248;7.006;2023-08-07T12:08:50;3.72;;;1.13;;
75526;SDS011;64107;49.248;7.006;2023-08-07T12:11:19;4.15;;;1.35;;
75526;SDS011;64107;49.248;7.006;2023-08-07T12:13:49;1.65;;;1.23;;
75526;SDS011;64107;49.248;7.006;2023-08-07T12:16:15;3.35;;;2.00;;
75526;SDS011;64107;49.248;7.006;2023-08-07T12:18:49;2.03;;;1.20;;
75526;SDS011;64107;49.248;7.006;2023-08-07T12:21:16;2.55;;;1.10;;
75526;SDS011;64107;49.248;7.006;2023-08-07T12:23:48;1.27;;;1.05;;
75526;SDS011;64107;49.248;7.006;2023-08-07T12:26:15;3.63;;;1.98;;
75526;SDS011;64107;49.248;7.006;2023-08-07T12:28:41;2.25;;;1.60;;
75526;SDS011;64107;49.248;7.006;2023-08-07T12:31:07;1.27;;;1.10;;
75526;SDS011;64107;49.248;7.006;2023-08-07T12:33:33;1.80;;;1.70;;
75526;SDS011;64107;49.248;7.006;2023-08-07T12:36:00;2.00;;;1.35;;
75526;SDS011;64107;49.248;7.006;2023-08-07T12:38:27;2.65;;;1.50;;
75526;SDS011;64107;49.248;7.006;2023-08-07T12:40:53;1.38;;;1.27;;
75526;SDS011;64107;49.248;7.006;2023-08-07T12:43:19;1.40;;;1.05;;
75526;SDS011;64107;49.248;7.006;2023-08-07T12:45:45;2.78;;;1.17;;
75526;SDS011;64107;49.248;7.006;2023-08-07T12:48:11;1.40;;;1.30;;
75526;SDS011;64107;49.248;7.006;2023-08-07T12:50:38;2.33;;;1.30;;
75526;SDS011;64107;49.248;7.006;2023-08-07T12:53:05;2.28;;;1.58;;
75526;SDS011;64107;49.248;7.006;2023-08-07T12:55:31;1.27;;;1.17;;
75526;SDS011;64107;49.248;7.006;2023-08-07T12:57:57;1.67;;;0.80;;
75526;SDS011;64107;49.248;7.006;2023-08-07T13:00:24;1.88;;;1.00;;
75526;SDS011;64107;49.248;7.006;2023-08-07T13:02:51;2.20;;;1.17;;
75526;SDS011;64107;49.248;7.006;2023-08-07T13:05:18;1.08;;;0.98;;
75526;SDS011;64107;49.248;7.006;2023-08-07T13:07:45;1.13;;;0.70;;
75526;SDS011;64107;49.248;7.006;2023-08-07T13:10:12;2.13;;;1.08;;
75526;SDS011;64107;49.248;7.006;2023-08-07T13:12:39;1.42;;;0.90;;
75526;SDS011;64107;49.248;7.006;2023-08-07T13:15:07;1.85;;;0.80;;
75526;SDS011;64107;49.248;7.006;2023-08-07T13:17:34;1.50;;;1.00;;
75526;SDS011;64107;49.248;7.006;2023-08-07T13:20:01;2.28;;;1.00;;
75526;SDS011;64107;49.248;7.006;2023-08-07T13:22:32;1.40;;;1.30;;
75526;SDS011;64107;49.248;7.006;2023-08-07T13:24:59;1.60;;;1.10;;
75526;SDS011;64107;49.248;7.006;2023-08-07T13:27:25;1.30;;;1.17;;
75526;SDS011;64107;49.248;7.006;2023-08-07T13:29:52;2.17;;;1.30;;
75526;SDS011;64107;49.248;7.006;2023-08-07T13:32:18;1.33;;;1.08;;
75526;SDS011;64107;49.248;7.006;2023-08-07T13:34:45;1.50;;;0.82;;
75526;SDS011;64107;49.248;7.006;2023-08-07T13:37:11;1.90;;;0.90;;
75526;SDS011;64107;49.248;7.006;2023-08-07T13:39:38;1.17;;;1.08;;
75526;SDS011;64107;49.248;7.006;2023-08-07T13:42:04;1.40;;;1.13;;
75526;SDS011;64107;49.248;7.006;2023-08-07T13:44:30;0.70;;;0.70;;
75526;SDS011;64107;49.248;7.006;2023-08-07T13:46:56;0.98;;;0.88;;
75526;SDS011;64107;49.248;7.006;2023-08-07T13:49:22;1.58;;;1.00;;
75526;SDS011;64107;49.248;7.006;2023-08-07T13:51:49;1.13;;;1.00;;
75526;SDS011;64107;49.248;7.006;2023-08-07T13:54:15;1.23;;;0.60;;
75526;SDS011;64107;49.248;7.006;2023-08-07T13:56:41;1.90;;;1.05;;
75526;SDS011;64107;49.248;7.006;2023-08-07T13:59:07;1.88;;;1.55;;
75526;SDS011;64107;49.248;7.006;2023-08-07T14:01:34;0.88;;;0.82;;
75526;SDS011;64107;49.248;7.006;2023-08-07T14:04:00;1.95;;;0.70;;
75526;SDS011;64107;49.248;7.006;2023-08-07T14:06:27;1.50;;;0.90;;
75526;SDS011;64107;49.248;7.006;2023-08-07T14:08:53;1.60;;;1.17;;
75526;SDS011;64107;49.248;7.006;2023-08-07T14:11:20;1.25;;;0.85;;
75526;SDS011;64107;49.248;7.006;2023-08-07T14:13:49;1.88;;;0.98;;
75526;SDS011;64107;49.248;7.006;2023-08-07T14:16:15;1.40;;;1.20;;
75526;SDS011;64107;49.248;7.006;2023-08-07T14:18:41;1.95;;;1.25;;
75526;SDS011;64107;49.248;7.006;2023-08-07T14:21:08;1.00;;;0.75;;
75526;SDS011;64107;49.248;7.006;2023-08-07T14:23:34;0.82;;;0.70;;
75526;SDS011;64107;49.248;7.006;2023-08-07T14:26:00;2.17;;;1.15;;
75526;SDS011;64107;49.248;7.006;2023-08-07T14:28:26;2.58;;;1.33;;
75526;SDS011;64107;49.248;7.006;2023-08-07T14:30:53;2.95;;;0.90;;
75526;SDS011;64107;49.248;7.006;2023-08-07T14:33:22;1.38;;;0.80;;
75526;SDS011;64107;49.248;7.006;2023-08-07T14:35:48;0.68;;;0.68;;
75526;SDS011;64107;49.248;7.006;2023-08-07T14:38:14;0.75;;;0.75;;
75526;SDS011;64107;49.248;7.006;2023-08-07T14:40:40;2.00;;;1.13;;
75526;SDS011;64107;49.248;7.006;2023-08-07T14:43:06;0.70;;;0.70;;
75526;SDS011;64107;49.248;7.006;2023-08-07T14:45:32;1.45;;;0.80;;
75526;SDS011;64107;49.248;7.006;2023-08-07T14:47:58;2.97;;;0.90;;
75526;SDS011;64107;49.248;7.006;2023-08-07T14:50:24;1.63;;;1.00;;
75526;SDS011;64107;49.248;7.006;2023-08-07T14:52:51;1.35;;;0.82;;
75526;SDS011;64107;49.248;7.006;2023-08-07T14:55:17;1.77;;;0.90;;